sensor_id;sensor_type;location;lat;lon;timestamp;temperature;humidity
23703;DHT22;12030;50.376;8.762;2022-09-12T00:01:46;12.60;99.90
23703;DHT22;12030;50.376;8.762;2022-09-12T00:04:11;12.50;99.90
23703;DHT22;12030;50.376;8.762;2022-09-12T00:06:37;12.40;99.90
23703;DHT22;12030;50.376;8.762;2022-09-12T00:09:08;12.30;99.90
23703;DHT22;12030;50.376;8.762;2022-09-12T00:11:39;12.30;99.90
23703;DHT22;12030;50.376;8.762;2022-09-12T00:14:09;12.30;99.90
23703;DHT22;12030;50.376;8.762;2022-09-12T00:16:36;12.30;99.90
23703;DHT22;12030;50.376;8.762;2022-09-12T00:19:02;12.40;99.90
23703;DHT22;12030;50.376;8.762;2022-09-12T00:21:29;12.40;99.90
23703;DHT22;12030;50.376;8.762;2022-09-12T00:23:56;12.40;99.90
23703;DHT22;12030;50.376;8.762;2022-09-12T00:26:23;12.40;99.90
23703;DHT22;12030;50.376;8.762;2022-09-12T00:28:49;12.30;99.90
23703;DHT22;12030;50.376;8.762;2022-09-12T00:31:17;12.20;99.90
23703;DHT22;12030;50.376;8.762;2022-09-12T00:33:43;12.30;99.90
23703;DHT22;12030;50.376;8.762;2022-09-12T00:36:15;12.30;99.90
23703;DHT22;12030;50.376;8.762;2022-09-12T00:38:42;12.30;99.90
23703;DHT22;12030;50.376;8.762;2022-09-12T00:41:26;12.20;99.90
23703;DHT22;12030;50.376;8.762;2022-09-12T00:43:58;12.20;99.90
23703;DHT22;12030;50.376;8.762;2022-09-12T00:46:33;12.00;99.90
23703;DHT22;12030;50.376;8.762;2022-09-12T00:49:02;12.10;99.90
23703;DHT22;12030;50.376;8.762;2022-09-12T00:51:32;12.10;99.90
23703;DHT22;12030;50.376;8.762;2022-09-12T00:53:59;12.10;99.90
23703;DHT22;12030;50.376;8.762;2022-09-12T00:56:27;12.00;99.90
23703;DHT22;12030;50.376;8.762;2022-09-12T00:59:08;12.00;99.90
23703;DHT22;12030;50.376;8.762;2022-09-12T01:01:36;12.00;99.90
23703;DHT22;12030;50.376;8.762;2022-09-12T01:04:03;12.00;99.90
23703;DHT22;12030;50.376;8.762;2022-09-12T01:06:33;12.00;99.90
23703;DHT22;12030;50.376;8.762;2022-09-12T01:09:00;12.00;99.90
23703;DHT22;12030;50.376;8.762;2022-09-12T01:11:30;12.10;99.90
23703;DHT22;12030;50.376;8.762;2022-09-12T01:13:56;12.00;99.90
23703;DHT22;12030;50.376;8.762;2022-09-12T01:16:22;12.00;99.90
23703;DHT22;12030;50.376;8.762;2022-09-12T01:27:18;11.80;99.90
23703;DHT22;12030;50.376;8.762;2022-09-12T01:30:12;11.80;99.90
23703;DHT22;12030;50.376;8.762;2022-09-12T01:35:25;11.70;99.90
23703;DHT22;12030;50.376;8.762;2022-09-12T01:38:26;11.80;99.90
23703;DHT22;12030;50.376;8.762;2022-09-12T01:41:10;11.70;99.90
23703;DHT22;12030;50.376;8.762;2022-09-12T01:43:51;11.70;99.90
23703;DHT22;12030;50.376;8.762;2022-09-12T01:49:15;11.60;99.90
23703;DHT22;12030;50.376;8.762;2022-09-12T01:52:09;11.60;99.90
23703;DHT22;12030;50.376;8.762;2022-09-12T01:55:15;11.60;99.90
23703;DHT22;12030;50.376;8.762;2022-09-12T01:57:50;11.50;99.90
23703;DHT22;12030;50.376;8.762;2022-09-12T02:00:16;11.50;99.90
23703;DHT22;12030;50.376;8.762;2022-09-12T02:02:56;11.50;99.90
23703;DHT22;12030;50.376;8.762;2022-09-12T02:05:34;11.50;99.90
23703;DHT22;12030;50.376;8.762;2022-09-12T02:08:07;11.50;99.90
23703;DHT22;12030;50.376;8.762;2022-09-12T02:10:42;11.50;99.90
23703;DHT22;12030;50.376;8.762;2022-09-12T02:13:14;11.40;99.90
23703;DHT22;12030;50.376;8.762;2022-09-12T02:15:48;11.40;99.90
23703;DHT22;12030;50.376;8.762;2022-09-12T02:18:17;11.40;99.90
23703;DHT22;12030;50.376;8.762;2022-09-12T02:20:44;11.40;99.90
23703;DHT22;12030;50.376;8.762;2022-09-12T02:23:14;11.40;99.90
23703;DHT22;12030;50.376;8.762;2022-09-12T02:25:43;11.40;99.90
23703;DHT22;12030;50.376;8.762;2022-09-12T02:28:14;11.30;99.90
23703;DHT22;12030;50.376;8.762;2022-09-12T02:31:14;11.40;99.90
23703;DHT22;12030;50.376;8.762;2022-09-12T02:39:09;11.30;99.90
23703;DHT22;12030;50.376;8.762;2022-09-12T02:41:35;11.30;99.90
23703;DHT22;12030;50.376;8.762;2022-09-12T02:44:01;11.30;99.90
23703;DHT22;12030;50.376;8.762;2022-09-12T02:46:35;11.30;99.90
23703;DHT22;12030;50.376;8.762;2022-09-12T02:49:02;11.20;99.90
23703;DHT22;12030;50.376;8.762;2022-09-12T02:51:28;11.20;99.90
23703;DHT22;12030;50.376;8.762;2022-09-12T02:53:54;11.10;99.90
23703;DHT22;12030;50.376;8.762;2022-09-12T02:56:25;11.10;99.90
23703;DHT22;12030;50.376;8.762;2022-09-12T02:58:52;11.20;99.90
23703;DHT22;12030;50.376;8.762;2022-09-12T03:11:11;11.00;99.90
23703;DHT22;12030;50.376;8.762;2022-09-12T03:13:34;11.00;99.90
23703;DHT22;12030;50.376;8.762;2022-09-12T03:16:14;11.00;99.90
23703;DHT22;12030;50.376;8.762;2022-09-12T03:24:27;11.20;99.90
23703;DHT22;12030;50.376;8.762;2022-09-12T03:29:30;11.20;99.90
23703;DHT22;12030;50.376;8.762;2022-09-12T03:31:57;11.20;99.90
23703;DHT22;12030;50.376;8.762;2022-09-12T03:34:25;11.30;99.90
23703;DHT22;12030;50.376;8.762;2022-09-12T03:36:51;11.30;99.90
23703;DHT22;12030;50.376;8.762;2022-09-12T03:39:20;11.40;99.90
23703;DHT22;12030;50.376;8.762;2022-09-12T03:41:45;11.40;99.90
23703;DHT22;12030;50.376;8.762;2022-09-12T03:44:11;11.50;99.90
23703;DHT22;12030;50.376;8.762;2022-09-12T03:46:36;11.50;99.90
23703;DHT22;12030;50.376;8.762;2022-09-12T03:49:02;11.50;99.90
23703;DHT22;12030;50.376;8.762;2022-09-12T03:51:28;11.50;99.90
23703;DHT22;12030;50.376;8.762;2022-09-12T03:53:53;11.50;99.90
23703;DHT22;12030;50.376;8.762;2022-09-12T03:56:19;11.50;99.90
23703;DHT22;12030;50.376;8.762;2022-09-12T03:58:45;11.50;99.90
23703;DHT22;12030;50.376;8.762;2022-09-12T04:01:13;11.50;99.90
23703;DHT22;12030;50.376;8.762;2022-09-12T04:03:44;11.50;99.90
23703;DHT22;12030;50.376;8.762;2022-09-12T04:06:11;11.60;99.90
23703;DHT22;12030;50.376;8.762;2022-09-12T04:08:38;11.60;99.90
23703;DHT22;12030;50.376;8.762;2022-09-12T04:11:10;11.50;99.90
23703;DHT22;12030;50.376;8.762;2022-09-12T04:13:37;11.50;99.90
23703;DHT22;12030;50.376;8.762;2022-09-12T04:16:04;11.50;99.90
23703;DHT22;12030;50.376;8.762;2022-09-12T04:18:30;11.40;99.90
23703;DHT22;12030;50.376;8.762;2022-09-12T04:20:56;11.40;99.90
23703;DHT22;12030;50.376;8.762;2022-09-12T04:23:22;11.30;99.90
23703;DHT22;12030;50.376;8.762;2022-09-12T04:25:58;11.30;99.90
23703;DHT22;12030;50.376;8.762;2022-09-12T04:28:25;11.30;99.90
23703;DHT22;12030;50.376;8.762;2022-09-12T04:30:51;11.20;99.90
23703;DHT22;12030;50.376;8.762;2022-09-12T04:33:17;11.20;99.90
23703;DHT22;12030;50.376;8.762;2022-09-12T04:35:43;11.20;99.90
23703;DHT22;12030;50.376;8.762;2022-09-12T04:38:10;11.20;99.90
23703;DHT22;12030;50.376;8.762;2022-09-12T04:40:36;11.20;99.90
23703;DHT22;12030;50.376;8.762;2022-09-12T04:43:01;11.20;99.90
23703;DHT22;12030;50.376;8.762;2022-09-12T04:45:27;11.20;99.90
23703;DHT22;12030;50.376;8.762;2022-09-12T04:47:52;11.10;99.90
23703;DHT22;12030;50.376;8.762;2022-09-12T04:50:18;11.10;99.90
23703;DHT22;12030;50.376;8.762;2022-09-12T04:52:49;11.10;99.90
23703;DHT22;12030;50.376;8.762;2022-09-12T04:55:15;11.10;99.90
23703;DHT22;12030;50.376;8.762;2022-09-12T04:57:40;11.10;99.90
23703;DHT22;12030;50.376;8.762;2022-09-12T05:00:06;11.00;99.90
23703;DHT22;12030;50.376;8.762;2022-09-12T05:02:33;11.00;99.90
23703;DHT22;12030;50.376;8.762;2022-09-12T05:04:58;11.00;99.90
23703;DHT22;12030;50.376;8.762;2022-09-12T05:07:24;11.00;99.90
23703;DHT22;12030;50.376;8.762;2022-09-12T05:09:50;11.00;99.90
23703;DHT22;12030;50.376;8.762;2022-09-12T05:12:15;11.00;99.90
23703;DHT22;12030;50.376;8.762;2022-09-12T05:14:41;10.90;99.90
23703;DHT22;12030;50.376;8.762;2022-09-12T05:17:06;10.90;99.90
23703;DHT22;12030;50.376;8.762;2022-09-12T05:19:32;10.90;99.90
23703;DHT22;12030;50.376;8.762;2022-09-12T05:21:57;11.00;99.90
23703;DHT22;12030;50.376;8.762;2022-09-12T05:24:23;11.10;99.90
23703;DHT22;12030;50.376;8.762;2022-09-12T05:26:49;11.00;99.90
23703;DHT22;12030;50.376;8.762;2022-09-12T05:29:15;11.00;99.90
23703;DHT22;12030;50.376;8.762;2022-09-12T05:31:41;11.00;99.90
23703;DHT22;12030;50.376;8.762;2022-09-12T05:34:07;11.10;99.90
23703;DHT22;12030;50.376;8.762;2022-09-12T05:36:33;11.00;99.90
23703;DHT22;12030;50.376;8.762;2022-09-12T05:38:59;11.10;99.90
23703;DHT22;12030;50.376;8.762;2022-09-12T05:41:26;11.10;99.90
23703;DHT22;12030;50.376;8.762;2022-09-12T05:44:01;11.20;99.90
23703;DHT22;12030;50.376;8.762;2022-09-12T05:46:30;11.10;99.90
23703;DHT22;12030;50.376;8.762;2022-09-12T05:49:03;11.10;99.90
23703;DHT22;12030;50.376;8.762;2022-09-12T05:51:32;11.10;99.90
23703;DHT22;12030;50.376;8.762;2022-09-12T05:54:00;11.10;99.90
23703;DHT22;12030;50.376;8.762;2022-09-12T05:56:27;11.20;99.90
23703;DHT22;12030;50.376;8.762;2022-09-12T06:01:20;11.20;99.90
23703;DHT22;12030;50.376;8.762;2022-09-12T06:03:49;11.20;99.90
23703;DHT22;12030;50.376;8.762;2022-09-12T06:06:17;11.20;99.90
23703;DHT22;12030;50.376;8.762;2022-09-12T06:08:45;11.20;99.90
23703;DHT22;12030;50.376;8.762;2022-09-12T06:11:16;11.20;99.90
23703;DHT22;12030;50.376;8.762;2022-09-12T06:13:42;11.30;99.90
23703;DHT22;12030;50.376;8.762;2022-09-12T06:16:14;11.40;99.90
23703;DHT22;12030;50.376;8.762;2022-09-12T06:18:40;11.40;99.90
23703;DHT22;12030;50.376;8.762;2022-09-12T06:21:08;11.50;99.90
23703;DHT22;12030;50.376;8.762;2022-09-12T06:23:35;11.50;99.90
23703;DHT22;12030;50.376;8.762;2022-09-12T06:26:02;11.70;99.90
23703;DHT22;12030;50.376;8.762;2022-09-12T06:28:29;11.80;99.90
23703;DHT22;12030;50.376;8.762;2022-09-12T06:31:03;11.80;99.90
23703;DHT22;12030;50.376;8.762;2022-09-12T06:33:30;11.90;99.90
23703;DHT22;12030;50.376;8.762;2022-09-12T06:36:08;12.00;99.90
23703;DHT22;12030;50.376;8.762;2022-09-12T06:38:34;12.00;99.90
23703;DHT22;12030;50.376;8.762;2022-09-12T06:41:03;12.10;99.90
23703;DHT22;12030;50.376;8.762;2022-09-12T06:43:29;12.20;99.90
23703;DHT22;12030;50.376;8.762;2022-09-12T06:45:55;12.20;99.90
23703;DHT22;12030;50.376;8.762;2022-09-12T06:48:21;12.20;99.90
23703;DHT22;12030;50.376;8.762;2022-09-12T06:53:22;12.30;99.90
23703;DHT22;12030;50.376;8.762;2022-09-12T06:55:54;12.40;99.90
23703;DHT22;12030;50.376;8.762;2022-09-12T06:58:20;12.50;99.90
23703;DHT22;12030;50.376;8.762;2022-09-12T07:00:45;12.50;99.90
23703;DHT22;12030;50.376;8.762;2022-09-12T07:03:11;12.60;99.90
23703;DHT22;12030;50.376;8.762;2022-09-12T07:05:36;12.60;99.90
23703;DHT22;12030;50.376;8.762;2022-09-12T07:08:02;12.70;99.90
23703;DHT22;12030;50.376;8.762;2022-09-12T07:10:28;12.70;99.90
23703;DHT22;12030;50.376;8.762;2022-09-12T07:12:55;12.80;99.90
23703;DHT22;12030;50.376;8.762;2022-09-12T07:15:20;12.90;99.90
23703;DHT22;12030;50.376;8.762;2022-09-12T07:17:46;12.90;99.90
23703;DHT22;12030;50.376;8.762;2022-09-12T07:20:11;13.00;99.90
23703;DHT22;12030;50.376;8.762;2022-09-12T07:22:37;13.10;99.90
23703;DHT22;12030;50.376;8.762;2022-09-12T07:25:02;13.20;99.90
23703;DHT22;12030;50.376;8.762;2022-09-12T07:27:29;13.30;99.90
23703;DHT22;12030;50.376;8.762;2022-09-12T07:29:54;13.40;99.90
23703;DHT22;12030;50.376;8.762;2022-09-12T07:32:20;13.50;99.90
23703;DHT22;12030;50.376;8.762;2022-09-12T07:34:47;13.60;99.90
23703;DHT22;12030;50.376;8.762;2022-09-12T07:37:14;13.80;99.90
23703;DHT22;12030;50.376;8.762;2022-09-12T07:39:39;13.90;99.90
23703;DHT22;12030;50.376;8.762;2022-09-12T07:42:05;14.00;99.90
23703;DHT22;12030;50.376;8.762;2022-09-12T07:44:31;14.00;99.90
23703;DHT22;12030;50.376;8.762;2022-09-12T07:46:57;14.20;99.90
23703;DHT22;12030;50.376;8.762;2022-09-12T07:49:22;14.30;99.90
23703;DHT22;12030;50.376;8.762;2022-09-12T07:51:48;14.40;99.90
23703;DHT22;12030;50.376;8.762;2022-09-12T07:54:14;14.60;99.90
23703;DHT22;12030;50.376;8.762;2022-09-12T07:56:40;14.70;99.90
23703;DHT22;12030;50.376;8.762;2022-09-12T07:59:07;14.80;99.90
23703;DHT22;12030;50.376;8.762;2022-09-12T08:01:32;14.90;99.90
23703;DHT22;12030;50.376;8.762;2022-09-12T08:03:58;15.00;99.90
23703;DHT22;12030;50.376;8.762;2022-09-12T08:06:26;15.20;99.90
23703;DHT22;12030;50.376;8.762;2022-09-12T08:08:53;15.30;99.90
23703;DHT22;12030;50.376;8.762;2022-09-12T08:11:20;15.40;99.90
23703;DHT22;12030;50.376;8.762;2022-09-12T08:13:47;15.60;99.90
23703;DHT22;12030;50.376;8.762;2022-09-12T08:16:15;15.70;99.90
23703;DHT22;12030;50.376;8.762;2022-09-12T08:18:42;15.80;99.90
23703;DHT22;12030;50.376;8.762;2022-09-12T08:21:22;15.80;99.90
23703;DHT22;12030;50.376;8.762;2022-09-12T08:23:53;16.00;99.90
23703;DHT22;12030;50.376;8.762;2022-09-12T08:26:19;16.10;99.90
23703;DHT22;12030;50.376;8.762;2022-09-12T08:28:45;16.30;99.90
23703;DHT22;12030;50.376;8.762;2022-09-12T08:31:16;16.40;99.90
23703;DHT22;12030;50.376;8.762;2022-09-12T08:33:43;16.50;99.90
23703;DHT22;12030;50.376;8.762;2022-09-12T08:36:10;16.60;99.90
23703;DHT22;12030;50.376;8.762;2022-09-12T08:38:38;16.60;99.90
23703;DHT22;12030;50.376;8.762;2022-09-12T08:44:14;16.80;99.90
23703;DHT22;12030;50.376;8.762;2022-09-12T08:47:00;16.90;99.90
23703;DHT22;12030;50.376;8.762;2022-09-12T08:49:31;17.00;99.90
23703;DHT22;12030;50.376;8.762;2022-09-12T08:52:10;17.10;99.90
23703;DHT22;12030;50.376;8.762;2022-09-12T08:54:37;17.20;99.90
23703;DHT22;12030;50.376;8.762;2022-09-12T08:57:04;17.20;99.90
23703;DHT22;12030;50.376;8.762;2022-09-12T08:59:36;17.40;99.90
23703;DHT22;12030;50.376;8.762;2022-09-12T09:02:04;17.60;99.90
23703;DHT22;12030;50.376;8.762;2022-09-12T09:04:54;17.80;99.90
23703;DHT22;12030;50.376;8.762;2022-09-12T09:16:29;18.50;99.90
23703;DHT22;12030;50.376;8.762;2022-09-12T09:18:58;18.60;99.90
23703;DHT22;12030;50.376;8.762;2022-09-12T09:24:25;18.90;99.90
23703;DHT22;12030;50.376;8.762;2022-09-12T09:27:04;18.90;99.90
23703;DHT22;12030;50.376;8.762;2022-09-12T09:29:53;19.00;99.90
23703;DHT22;12030;50.376;8.762;2022-09-12T09:32:28;19.10;99.90
23703;DHT22;12030;50.376;8.762;2022-09-12T09:34:55;19.30;99.90
23703;DHT22;12030;50.376;8.762;2022-09-12T09:37:42;19.40;99.90
23703;DHT22;12030;50.376;8.762;2022-09-12T09:40:31;19.40;99.90
23703;DHT22;12030;50.376;8.762;2022-09-12T09:43:10;19.60;99.90
23703;DHT22;12030;50.376;8.762;2022-09-12T09:45:40;19.70;99.90
23703;DHT22;12030;50.376;8.762;2022-09-12T09:48:29;19.80;99.90
23703;DHT22;12030;50.376;8.762;2022-09-12T09:50:58;19.90;99.90
23703;DHT22;12030;50.376;8.762;2022-09-12T09:53:36;20.00;99.90
23703;DHT22;12030;50.376;8.762;2022-09-12T09:58:45;20.20;99.90
23703;DHT22;12030;50.376;8.762;2022-09-12T10:01:15;20.30;99.90
23703;DHT22;12030;50.376;8.762;2022-09-12T10:03:52;20.40;99.90
23703;DHT22;12030;50.376;8.762;2022-09-12T10:08:44;20.40;99.90
23703;DHT22;12030;50.376;8.762;2022-09-12T10:13:51;20.50;99.90
23703;DHT22;12030;50.376;8.762;2022-09-12T10:18:47;20.70;99.90
23703;DHT22;12030;50.376;8.762;2022-09-12T10:24:22;20.80;99.90
23703;DHT22;12030;50.376;8.762;2022-09-12T10:27:04;20.90;99.90
23703;DHT22;12030;50.376;8.762;2022-09-12T10:29:33;21.00;99.90
23703;DHT22;12030;50.376;8.762;2022-09-12T10:32:02;21.10;99.90
23703;DHT22;12030;50.376;8.762;2022-09-12T10:37:04;21.10;99.90
23703;DHT22;12030;50.376;8.762;2022-09-12T10:39:31;21.30;99.90
23703;DHT22;12030;50.376;8.762;2022-09-12T10:41:58;21.20;99.90
23703;DHT22;12030;50.376;8.762;2022-09-12T10:44:26;21.30;99.90
23703;DHT22;12030;50.376;8.762;2022-09-12T10:46:53;21.40;99.90
23703;DHT22;12030;50.376;8.762;2022-09-12T10:49:31;21.50;99.90
23703;DHT22;12030;50.376;8.762;2022-09-12T10:52:22;21.60;99.90
23703;DHT22;12030;50.376;8.762;2022-09-12T10:54:52;21.70;99.90
23703;DHT22;12030;50.376;8.762;2022-09-12T10:57:28;21.70;99.90
23703;DHT22;12030;50.376;8.762;2022-09-12T11:03:21;21.80;99.90
23703;DHT22;12030;50.376;8.762;2022-09-12T11:05:57;21.90;99.90
23703;DHT22;12030;50.376;8.762;2022-09-12T11:08:48;22.00;99.90
23703;DHT22;12030;50.376;8.762;2022-09-12T11:11:31;22.00;99.90
23703;DHT22;12030;50.376;8.762;2022-09-12T11:14:20;22.00;99.90
23703;DHT22;12030;50.376;8.762;2022-09-12T11:28:13;22.30;99.90
23703;DHT22;12030;50.376;8.762;2022-09-12T11:33:44;22.40;99.90
23703;DHT22;12030;50.376;8.762;2022-09-12T11:36:21;22.50;99.90
23703;DHT22;12030;50.376;8.762;2022-09-12T11:41:36;22.40;99.90
23703;DHT22;12030;50.376;8.762;2022-09-12T11:46:52;22.40;99.90
23703;DHT22;12030;50.376;8.762;2022-09-12T11:49:35;22.60;99.90
23703;DHT22;12030;50.376;8.762;2022-09-12T11:52:22;22.70;99.90
23703;DHT22;12030;50.376;8.762;2022-09-12T11:55:01;22.80;99.90
23703;DHT22;12030;50.376;8.762;2022-09-12T11:57:48;22.90;99.90
23703;DHT22;12030;50.376;8.762;2022-09-12T12:00:43;22.90;99.90
23703;DHT22;12030;50.376;8.762;2022-09-12T12:03:22;23.10;99.90
23703;DHT22;12030;50.376;8.762;2022-09-12T12:08:29;23.10;99.90
23703;DHT22;12030;50.376;8.762;2022-09-12T12:11:02;23.00;99.90
23703;DHT22;12030;50.376;8.762;2022-09-12T12:13:44;23.10;99.90
23703;DHT22;12030;50.376;8.762;2022-09-12T12:21:49;23.40;99.90
23703;DHT22;12030;50.376;8.762;2022-09-12T12:24:19;23.50;99.90
23703;DHT22;12030;50.376;8.762;2022-09-12T12:27:04;23.50;99.90
23703;DHT22;12030;50.376;8.762;2022-09-12T12:29:41;23.50;99.90
23703;DHT22;12030;50.376;8.762;2022-09-12T12:52:40;24.20;99.90
23703;DHT22;12030;50.376;8.762;2022-09-12T12:55:14;24.30;99.80
23703;DHT22;12030;50.376;8.762;2022-09-12T12:57:52;24.40;99.90
23703;DHT22;12030;50.376;8.762;2022-09-12T13:05:46;24.60;97.10
23703;DHT22;12030;50.376;8.762;2022-09-12T13:08:37;24.80;98.80
23703;DHT22;12030;50.376;8.762;2022-09-12T13:11:15;24.80;99.10
23703;DHT22;12030;50.376;8.762;2022-09-12T13:13:56;24.90;98.70
23703;DHT22;12030;50.376;8.762;2022-09-12T13:19:01;25.10;97.80
23703;DHT22;12030;50.376;8.762;2022-09-12T13:21:28;25.10;96.80
23703;DHT22;12030;50.376;8.762;2022-09-12T13:24:11;25.10;97.00
23703;DHT22;12030;50.376;8.762;2022-09-12T13:26:43;25.20;97.60
23703;DHT22;12030;50.376;8.762;2022-09-12T13:29:14;25.40;98.90
23703;DHT22;12030;50.376;8.762;2022-09-12T13:31:41;25.40;98.10
23703;DHT22;12030;50.376;8.762;2022-09-12T13:34:07;25.50;98.30
23703;DHT22;12030;50.376;8.762;2022-09-12T13:39:27;25.70;96.60
23703;DHT22;12030;50.376;8.762;2022-09-12T13:44:43;25.80;96.40
23703;DHT22;12030;50.376;8.762;2022-09-12T13:47:17;25.80;94.70
23703;DHT22;12030;50.376;8.762;2022-09-12T13:49:47;26.00;97.00
23703;DHT22;12030;50.376;8.762;2022-09-12T13:52:39;26.00;94.50
23703;DHT22;12030;50.376;8.762;2022-09-12T13:55:09;26.00;94.90
23703;DHT22;12030;50.376;8.762;2022-09-12T13:57:42;25.90;94.50
23703;DHT22;12030;50.376;8.762;2022-09-12T14:00:18;26.10;95.20
23703;DHT22;12030;50.376;8.762;2022-09-12T14:02:45;26.20;95.40
23703;DHT22;12030;50.376;8.762;2022-09-12T14:05:24;26.40;93.70
23703;DHT22;12030;50.376;8.762;2022-09-12T14:08:01;26.40;93.50
23703;DHT22;12030;50.376;8.762;2022-09-12T14:10:37;26.50;93.20
23703;DHT22;12030;50.376;8.762;2022-09-12T14:15:44;26.50;94.40
23703;DHT22;12030;50.376;8.762;2022-09-12T14:18:26;26.50;93.70
23703;DHT22;12030;50.376;8.762;2022-09-12T14:20:54;26.50;92.80
23703;DHT22;12030;50.376;8.762;2022-09-12T14:23:32;26.60;92.50
23703;DHT22;12030;50.376;8.762;2022-09-12T14:26:01;26.80;94.10
23703;DHT22;12030;50.376;8.762;2022-09-12T14:28:28;26.90;93.30
23703;DHT22;12030;50.376;8.762;2022-09-12T14:31:05;26.90;92.20
23703;DHT22;12030;50.376;8.762;2022-09-12T14:33:52;27.00;93.20
23703;DHT22;12030;50.376;8.762;2022-09-12T14:36:38;27.00;90.40
23703;DHT22;12030;50.376;8.762;2022-09-12T14:39:14;27.10;92.20
23703;DHT22;12030;50.376;8.762;2022-09-12T14:41:41;27.00;92.90
23703;DHT22;12030;50.376;8.762;2022-09-12T14:44:14;27.00;92.10
23703;DHT22;12030;50.376;8.762;2022-09-12T14:46:42;27.10;91.40
23703;DHT22;12030;50.376;8.762;2022-09-12T14:49:33;27.20;90.50
23703;DHT22;12030;50.376;8.762;2022-09-12T14:52:02;27.20;90.50
23703;DHT22;12030;50.376;8.762;2022-09-12T14:57:16;27.50;91.50
23703;DHT22;12030;50.376;8.762;2022-09-12T14:59:51;27.60;91.40
23703;DHT22;12030;50.376;8.762;2022-09-12T15:09:49;27.40;89.80
23703;DHT22;12030;50.376;8.762;2022-09-12T15:12:14;27.40;90.50
23703;DHT22;12030;50.376;8.762;2022-09-12T15:14:40;27.40;91.00
23703;DHT22;12030;50.376;8.762;2022-09-12T15:17:05;27.30;90.90
23703;DHT22;12030;50.376;8.762;2022-09-12T15:19:31;27.20;90.20
23703;DHT22;12030;50.376;8.762;2022-09-12T15:21:57;27.10;89.50
23703;DHT22;12030;50.376;8.762;2022-09-12T15:24:22;27.20;91.40
23703;DHT22;12030;50.376;8.762;2022-09-12T15:26:48;27.30;91.00
23703;DHT22;12030;50.376;8.762;2022-09-12T15:29:14;27.30;90.10
23703;DHT22;12030;50.376;8.762;2022-09-12T15:31:39;27.40;90.30
23703;DHT22;12030;50.376;8.762;2022-09-12T15:34:05;27.50;89.10
23703;DHT22;12030;50.376;8.762;2022-09-12T15:36:31;27.60;90.00
23703;DHT22;12030;50.376;8.762;2022-09-12T15:38:57;27.60;90.50
23703;DHT22;12030;50.376;8.762;2022-09-12T15:41:33;27.70;89.50
23703;DHT22;12030;50.376;8.762;2022-09-12T15:44:03;27.70;87.30
23703;DHT22;12030;50.376;8.762;2022-09-12T15:46:29;27.30;85.40
23703;DHT22;12030;50.376;8.762;2022-09-12T15:48:55;27.30;88.80
23703;DHT22;12030;50.376;8.762;2022-09-12T15:51:21;27.40;89.80
23703;DHT22;12030;50.376;8.762;2022-09-12T15:53:48;27.40;89.20
23703;DHT22;12030;50.376;8.762;2022-09-12T15:56:15;27.40;86.70
23703;DHT22;12030;50.376;8.762;2022-09-12T15:58:41;27.30;87.00
23703;DHT22;12030;50.376;8.762;2022-09-12T16:01:10;27.20;87.50
23703;DHT22;12030;50.376;8.762;2022-09-12T16:03:36;27.30;88.00
23703;DHT22;12030;50.376;8.762;2022-09-12T16:06:02;27.40;89.20
23703;DHT22;12030;50.376;8.762;2022-09-12T16:08:30;27.30;88.70
23703;DHT22;12030;50.376;8.762;2022-09-12T16:11:08;27.10;85.60
23703;DHT22;12030;50.376;8.762;2022-09-12T16:13:35;27.40;89.40
23703;DHT22;12030;50.376;8.762;2022-09-12T16:16:01;26.80;88.70
23703;DHT22;12030;50.376;8.762;2022-09-12T16:18:27;26.50;90.10
23703;DHT22;12030;50.376;8.762;2022-09-12T16:20:54;26.50;90.70
23703;DHT22;12030;50.376;8.762;2022-09-12T16:23:20;26.50;91.10
23703;DHT22;12030;50.376;8.762;2022-09-12T16:26:03;26.30;90.40
23703;DHT22;12030;50.376;8.762;2022-09-12T16:28:30;26.20;87.30
23703;DHT22;12030;50.376;8.762;2022-09-12T16:30:59;26.00;90.80
23703;DHT22;12030;50.376;8.762;2022-09-12T16:33:26;25.90;91.50
23703;DHT22;12030;50.376;8.762;2022-09-12T16:35:52;25.80;92.10
23703;DHT22;12030;50.376;8.762;2022-09-12T16:38:21;25.70;92.90
23703;DHT22;12030;50.376;8.762;2022-09-12T16:40:47;25.60;90.80
23703;DHT22;12030;50.376;8.762;2022-09-12T16:43:13;25.50;90.00
23703;DHT22;12030;50.376;8.762;2022-09-12T16:45:42;25.50;91.60
23703;DHT22;12030;50.376;8.762;2022-09-12T16:48:07;25.40;93.30
23703;DHT22;12030;50.376;8.762;2022-09-12T16:50:33;25.30;92.50
23703;DHT22;12030;50.376;8.762;2022-09-12T16:52:59;25.10;94.70
23703;DHT22;12030;50.376;8.762;2022-09-12T16:55:24;25.00;94.60
23703;DHT22;12030;50.376;8.762;2022-09-12T16:57:50;25.00;95.60
23703;DHT22;12030;50.376;8.762;2022-09-12T17:00:16;24.80;96.50
23703;DHT22;12030;50.376;8.762;2022-09-12T17:02:41;24.80;97.40
23703;DHT22;12030;50.376;8.762;2022-09-12T17:05:07;24.60;98.10
23703;DHT22;12030;50.376;8.762;2022-09-12T17:07:33;24.40;99.00
23703;DHT22;12030;50.376;8.762;2022-09-12T17:09:59;24.20;99.90
23703;DHT22;12030;50.376;8.762;2022-09-12T17:12:24;23.80;99.90
23703;DHT22;12030;50.376;8.762;2022-09-12T17:14:50;23.50;99.90
23703;DHT22;12030;50.376;8.762;2022-09-12T17:17:16;23.20;99.90
23703;DHT22;12030;50.376;8.762;2022-09-12T17:19:41;22.80;99.90
23703;DHT22;12030;50.376;8.762;2022-09-12T17:22:08;22.40;99.90
23703;DHT22;12030;50.376;8.762;2022-09-12T17:24:34;22.30;99.90
23703;DHT22;12030;50.376;8.762;2022-09-12T17:27:00;22.00;99.90
23703;DHT22;12030;50.376;8.762;2022-09-12T17:29:25;21.80;99.90
23703;DHT22;12030;50.376;8.762;2022-09-12T17:31:51;21.60;99.90
23703;DHT22;12030;50.376;8.762;2022-09-12T17:34:19;21.50;99.90
23703;DHT22;12030;50.376;8.762;2022-09-12T17:36:44;21.20;99.90
23703;DHT22;12030;50.376;8.762;2022-09-12T17:39:11;21.00;99.90
23703;DHT22;12030;50.376;8.762;2022-09-12T17:41:37;20.80;99.90
23703;DHT22;12030;50.376;8.762;2022-09-12T17:44:03;20.60;99.90
23703;DHT22;12030;50.376;8.762;2022-09-12T17:46:36;20.30;99.90
23703;DHT22;12030;50.376;8.762;2022-09-12T17:49:04;20.20;99.90
23703;DHT22;12030;50.376;8.762;2022-09-12T17:51:30;20.10;99.90
23703;DHT22;12030;50.376;8.762;2022-09-12T17:56:23;19.70;99.90
23703;DHT22;12030;50.376;8.762;2022-09-12T17:58:49;19.60;99.90
23703;DHT22;12030;50.376;8.762;2022-09-12T18:01:14;19.50;99.90
23703;DHT22;12030;50.376;8.762;2022-09-12T18:03:59;19.30;99.90
23703;DHT22;12030;50.376;8.762;2022-09-12T18:06:26;19.20;99.90
23703;DHT22;12030;50.376;8.762;2022-09-12T18:08:52;19.00;99.90
23703;DHT22;12030;50.376;8.762;2022-09-12T18:11:18;18.80;99.90
23703;DHT22;12030;50.376;8.762;2022-09-12T18:13:44;18.70;99.90
23703;DHT22;12030;50.376;8.762;2022-09-12T18:16:11;18.60;99.90
23703;DHT22;12030;50.376;8.762;2022-09-12T18:18:37;18.40;99.90
23703;DHT22;12030;50.376;8.762;2022-09-12T18:21:04;18.30;99.90
23703;DHT22;12030;50.376;8.762;2022-09-12T18:23:30;18.20;99.90